AirNav   Everest Fuels
 
 789 users online  

1TE4 Zuehl Airport
Marion, Texas, USA

GOING TO MARION?


FAA INFORMATION EFFECTIVE 18 JUNE 2020

Location

FAA Identifier: 1TE4
Lat/Long: 29-29-43.8330N 098-09-28.0320W
29-29.730550N 098-09.467200W
29.4955092,-98.1577867
(estimated)
Elevation: 592 ft. / 180 m (estimated)
Variation: 07E (1985)
From city: 4 miles S of MARION, TX
Time zone: UTC -5 (UTC -6 during Standard Time)
Zip code: 78124

Airport Operations

Airport use: Private use. Permission required prior to landing
Activation date: 06/1974
Control tower: no
ARTCC: HOUSTON CENTER
FSS: SAN ANGELO FLIGHT SERVICE STATION
Attendance: CONTINUOUS
Wind indicator: yes
Segmented circle: no

Airport Communications

WX ASOS at BAZ (14 nm NE): 119.325 (830-629-7979)
WX ASOS at SAT (16 nm W): PHONE 210-805-5583
WX ASOS at SSF (19 nm SW): PHONE 210-927-9391

Nearby radio navigation aids

VOR radial/distance  VOR name  Freq  Var
RNDr097/6.8RANDOLPH VORTAC112.3005E
SATr111/18.2SAN ANTONIO VORTAC116.8008E
SSFr037/(20.6)STINSON VOR108.4009E

Airport Services

Fuel available: 100
Airframe service: NONE
Powerplant service: NONE

Runway Information

Runway 17/35

Dimensions: 3000 x 200 ft. / 914 x 61 m
Surface: turf
RUNWAY 17  RUNWAY 35
Traffic pattern: leftright
Runway end identifier lights: nono
Obstructions: trees, 800 ft. from runway, 14:1 slope to cleartrees, 800 ft. from runway, 14:1 slope to clear

Airport Ownership and Management from official FAA records

Ownership: Privately-owned
Owner: ZUEHL APT FLYING COMM OWNRS ASSN
P.O. BOX 430
MARION, TX 78124
Phone 210-279-9528
Manager: ZUEHL ARPT FLYING COMM OWNRS ASSN
P.O. BOX 430
MARION, TX 78124
Phone 210-279-9528
BILL SMITH 12223 BROWNSTONE LIVE OAK, TX 78233 210-279-9528 WILNLIL@EARTHLINK.NET

Airport Operational Statistics

Aircraft based on the field: 105
Single engine airplanes: 100
Helicopters: 1
Ultralights: 4
    
Aircraft operations: avg 86/week
89% local general aviation
11% transient general aviation

Additional Remarks

ACFT WINGSPAN LIMITED TO 60 FEET.
ARPT LOCATED IN CLOSE PROXIMITY TO RANDOLPH AFB.
FOR CD CTC SAN ANTONIO APCH AT 210-805-5516.
OWNER DESIRES CHARTING.

Instrument Procedures

There are no published instrument procedures at 1TE4.

Some nearby airports with instrument procedures:

KRND - Randolph Air Force Base (7 nm W)
KBAZ - New Braunfels Regional Airport (14 nm NE)
KSAT - San Antonio International Airport (16 nm W)
KSSF - Stinson Municipal Airport (19 nm SW)
KSKF - Kelly Field Airport (23 nm W)
 
Loc | Ops | Rwys | IFR | FBO | Links
Com | Nav | Svcs | Stats | Notes
Area around 1TE4 (Zuehl Airport)
 
Road maps at: MapQuest Bing Google
 
Aerial photo
WARNING: Photo may not be current or correct
Aerial photo of 1TE4 (Zuehl Airport)
Photo by “Krusty”
Photo taken 22-Jan-2011
looking north.

Do you have a better or more recent aerial photo of Zuehl Airport that you would like to share? If so, please send us your photo.

 
Sectional chart

 
Airport distance calculator
Flying to Zuehl Airport? Find the distance to fly.

From to 1TE4

Sunrise and sunset
Times for 08-Jul-2020
 Local
(UTC-5)
 Zulu
(UTC)
Morning civil twilight06:1411:14
Sunrise06:4111:41
Sunset20:3501:35
Evening civil twilight21:0202:02

Current date and time
Zulu (UTC)  09-Jul-2020 03:11:46
Local (UTC-5)  08-Jul-2020 22:11:46
 
METAR
KRND 
6nm W 
090256Z AUTO 15011KT 10SM CLR 30/23 A2988 RMK AO2 SLP109 T02970234 52018 $
KSEQ 
14nm E 
090258Z AUTO 16011G18KT 10SM CLR 29/23 A2991 RMK AO2 SLP123 T02850232 52018
KBAZ 
14nm NE 
090251Z AUTO 16015G25KT 10SM CLR 31/23 A2986 RMK AO2 SLP100 T03060233 53016
KSAT 
16nm W 
090251Z 16016KT 10SM FEW070 FEW250 31/23 A2988 RMK AO2 SLP096 T03110233 53017
KSSF 
19nm SW 
090253Z AUTO 15012KT 10SM CLR 29/24 A2985 RMK AO2 SLP094 T02940239 53018
TAF
KRND 
6nm W 
082339Z 0823/0922 15012G18KT 9999 FEW040 QNH2979INS BECMG 0904/0905 15009KT 9999 FEW055 QNH2987INS BECMG 0910/0911 VRB06KT 8000 BR SCT002 BKN010 QNH2988INS BECMG 0913/0914 17009KT 9999 NSW OVC010 QNH2990INS BECMG 0914/0915 17009KT 9999 BKN015 QNH2990INS BECMG 0915/0916 18015G20KT 9999 SCT026 QNH2980INS TX36/0823Z TN24/0912Z LAST NO AMDS AFT 0823 NEXT 09
KSAT 
16nm W 
081737Z 0818/0924 18012KT P6SM SCT040 SCT250 FM090700 17009KT P6SM BKN015 FM091600 17012KT P6SM FEW040
KSSF 
19nm SW 
081737Z 0818/0918 17012KT P6SM SCT040 SCT250 FM090700 16007KT P6SM BKN015 FM091600 17011KT P6SM FEW040
NOTAMs
Click for the latest NOTAMs
NOTAMs are issued by the DoD/FAA and will open in a separate window not controlled by AirNav.

 

 
 

Would you like to see your business listed on this page?

 If your business provides an interesting product or service to pilots, flight crews, aircraft, or users of the Zuehl Airport, you should consider listing it here.  To start the listing process, click on the button below
 
Add a business
 

Other Pages about Zuehl Airport

www.zuehlfield.com
 
Update a link
 
Copyright © AirNav, LLC. All rights reserved. Privacy Policy  Contact